sensor_id;sensor_type;location;lat;lon;timestamp;pressure;altitude;pressure_sealevel;temperature;humidity
32759;BME280;19125;52.360;9.974;2023-11-19T00:01:04;-15010.44;;;-145.17;74.05
32759;BME280;19125;52.360;9.974;2023-11-19T00:03:30;-15010.44;;;-145.17;74.36
32759;BME280;19125;52.360;9.974;2023-11-19T00:05:56;-15010.44;;;-145.17;74.07
32759;BME280;19125;52.360;9.974;2023-11-19T00:08:21;-15010.44;;;-145.17;74.31
32759;BME280;19125;52.360;9.974;2023-11-19T00:10:46;-15010.44;;;-145.17;73.97
32759;BME280;19125;52.360;9.974;2023-11-19T00:13:12;-15010.44;;;-145.17;74.08
32759;BME280;19125;52.360;9.974;2023-11-19T00:15:37;-15010.44;;;-145.17;74.22
32759;BME280;19125;52.360;9.974;2023-11-19T00:18:03;-15010.44;;;-145.17;74.41
32759;BME280;19125;52.360;9.974;2023-11-19T00:20:30;-15010.44;;;-145.17;73.89
32759;BME280;19125;52.360;9.974;2023-11-19T00:22:58;-15010.44;;;-145.17;74.28
32759;BME280;19125;52.360;9.974;2023-11-19T00:25:23;-15010.44;;;-145.17;74.39
32759;BME280;19125;52.360;9.974;2023-11-19T00:27:52;-15010.44;;;-145.17;74.63
32759;BME280;19125;52.360;9.974;2023-11-19T00:30:18;-15010.44;;;-145.17;74.53
32759;BME280;19125;52.360;9.974;2023-11-19T00:32:44;-15010.44;;;-145.17;74.38
32759;BME280;19125;52.360;9.974;2023-11-19T00:35:10;-15010.44;;;-145.17;74.61
32759;BME280;19125;52.360;9.974;2023-11-19T00:37:36;-15010.44;;;-145.17;74.28
32759;BME280;19125;52.360;9.974;2023-11-19T00:40:05;-15010.44;;;-145.17;74.20
32759;BME280;19125;52.360;9.974;2023-11-19T00:42:35;-15010.44;;;-145.17;74.17
32759;BME280;19125;52.360;9.974;2023-11-19T00:45:27;-15010.44;;;-145.17;74.41
32759;BME280;19125;52.360;9.974;2023-11-19T00:47:53;-15010.44;;;-145.17;74.05
32759;BME280;19125;52.360;9.974;2023-11-19T00:50:18;-15010.44;;;-145.17;74.38
32759;BME280;19125;52.360;9.974;2023-11-19T00:52:44;-15010.44;;;-145.17;74.40
32759;BME280;19125;52.360;9.974;2023-11-19T00:55:15;-15010.44;;;-145.17;74.44
32759;BME280;19125;52.360;9.974;2023-11-19T00:57:40;-15010.44;;;-145.17;74.59
32759;BME280;19125;52.360;9.974;2023-11-19T01:00:06;-15010.44;;;-145.17;74.75
32759;BME280;19125;52.360;9.974;2023-11-19T01:02:46;-15010.44;;;-145.17;74.82
32759;BME280;19125;52.360;9.974;2023-11-19T01:05:23;-15010.44;;;-145.17;74.40
32759;BME280;19125;52.360;9.974;2023-11-19T01:07:52;-15010.44;;;-145.17;74.51
32759;BME280;19125;52.360;9.974;2023-11-19T01:10:19;-15010.44;;;-145.17;74.40
32759;BME280;19125;52.360;9.974;2023-11-19T01:12:44;-15010.44;;;-145.17;74.86
32759;BME280;19125;52.360;9.974;2023-11-19T01:15:10;-15010.44;;;-145.17;74.93
32759;BME280;19125;52.360;9.974;2023-11-19T01:17:37;-15010.44;;;-145.17;75.21
32759;BME280;19125;52.360;9.974;2023-11-19T01:20:03;-15010.44;;;-145.17;75.13
32759;BME280;19125;52.360;9.974;2023-11-19T01:22:31;-15010.44;;;-145.17;75.00
32759;BME280;19125;52.360;9.974;2023-11-19T01:24:57;-15010.44;;;-145.17;75.34
32759;BME280;19125;52.360;9.974;2023-11-19T01:27:23;-15010.44;;;-145.17;75.23
32759;BME280;19125;52.360;9.974;2023-11-19T01:29:49;-15010.44;;;-145.17;75.32
32759;BME280;19125;52.360;9.974;2023-11-19T01:32:14;-15010.44;;;-145.17;75.43
32759;BME280;19125;52.360;9.974;2023-11-19T01:34:40;-15010.44;;;-145.17;75.52
32759;BME280;19125;52.360;9.974;2023-11-19T01:37:06;-15010.44;;;-145.17;75.28
32759;BME280;19125;52.360;9.974;2023-11-19T01:39:31;-15010.44;;;-145.17;75.54
32759;BME280;19125;52.360;9.974;2023-11-19T01:41:57;-15010.44;;;-145.17;75.46
32759;BME280;19125;52.360;9.974;2023-11-19T01:44:22;-15010.44;;;-145.17;75.57
32759;BME280;19125;52.360;9.974;2023-11-19T01:46:47;-15010.44;;;-145.17;75.72
32759;BME280;19125;52.360;9.974;2023-11-19T01:49:17;-15010.44;;;-145.17;76.28
32759;BME280;19125;52.360;9.974;2023-11-19T01:51:44;-15010.44;;;-145.17;75.74
32759;BME280;19125;52.360;9.974;2023-11-19T01:54:11;-15010.44;;;-145.17;75.89
32759;BME280;19125;52.360;9.974;2023-11-19T01:56:38;-15010.44;;;-145.17;75.74
32759;BME280;19125;52.360;9.974;2023-11-19T01:59:07;-15010.44;;;-145.17;75.75
32759;BME280;19125;52.360;9.974;2023-11-19T02:01:33;-15010.44;;;-145.17;75.76
32759;BME280;19125;52.360;9.974;2023-11-19T02:04:03;-15010.44;;;-145.17;75.83
32759;BME280;19125;52.360;9.974;2023-11-19T02:06:34;-15010.44;;;-145.17;75.75
32759;BME280;19125;52.360;9.974;2023-11-19T02:09:00;-15010.44;;;-145.17;76.22
32759;BME280;19125;52.360;9.974;2023-11-19T02:11:27;-15010.44;;;-145.17;76.20
32759;BME280;19125;52.360;9.974;2023-11-19T02:13:55;-15010.44;;;-145.17;76.16
32759;BME280;19125;52.360;9.974;2023-11-19T02:16:21;-15010.44;;;-145.17;75.64
32759;BME280;19125;52.360;9.974;2023-11-19T02:18:47;-15010.44;;;-145.17;75.68
32759;BME280;19125;52.360;9.974;2023-11-19T02:21:13;-15010.44;;;-145.17;76.15
32759;BME280;19125;52.360;9.974;2023-11-19T02:23:40;-15010.44;;;-145.17;76.02
32759;BME280;19125;52.360;9.974;2023-11-19T02:26:33;-15010.44;;;-145.17;76.61
32759;BME280;19125;52.360;9.974;2023-11-19T02:29:02;-15010.44;;;-145.17;76.23
32759;BME280;19125;52.360;9.974;2023-11-19T02:31:28;-15010.44;;;-145.17;75.68
32759;BME280;19125;52.360;9.974;2023-11-19T02:33:53;-15010.44;;;-145.17;76.10
32759;BME280;19125;52.360;9.974;2023-11-19T02:36:19;-15010.44;;;-145.17;76.08
32759;BME280;19125;52.360;9.974;2023-11-19T02:38:44;-15010.44;;;-145.17;76.59
32759;BME280;19125;52.360;9.974;2023-11-19T02:41:10;-15010.44;;;-145.17;76.73
32759;BME280;19125;52.360;9.974;2023-11-19T02:43:36;-15010.44;;;-145.17;76.17
32759;BME280;19125;52.360;9.974;2023-11-19T02:46:03;-15010.44;;;-145.17;76.47
32759;BME280;19125;52.360;9.974;2023-11-19T02:48:34;-15010.44;;;-145.17;76.36
32759;BME280;19125;52.360;9.974;2023-11-19T02:51:03;-15010.44;;;-145.17;76.32
32759;BME280;19125;52.360;9.974;2023-11-19T02:53:30;-15010.44;;;-145.17;76.60
32759;BME280;19125;52.360;9.974;2023-11-19T02:55:55;-15010.44;;;-145.17;77.01
32759;BME280;19125;52.360;9.974;2023-11-19T02:58:27;-15010.44;;;-145.17;77.01
32759;BME280;19125;52.360;9.974;2023-11-19T03:00:54;-15010.44;;;-145.17;76.94
32759;BME280;19125;52.360;9.974;2023-11-19T03:03:24;-15010.44;;;-145.17;76.98
32759;BME280;19125;52.360;9.974;2023-11-19T03:05:54;-15010.44;;;-145.17;77.03
32759;BME280;19125;52.360;9.974;2023-11-19T03:08:20;-15010.44;;;-145.17;76.92
32759;BME280;19125;52.360;9.974;2023-11-19T03:10:46;-15010.44;;;-145.17;76.99
32759;BME280;19125;52.360;9.974;2023-11-19T03:13:15;-15010.44;;;-145.17;76.74
32759;BME280;19125;52.360;9.974;2023-11-19T03:15:41;-15010.44;;;-145.17;77.17
32759;BME280;19125;52.360;9.974;2023-11-19T03:18:07;-15010.44;;;-145.17;77.25
32759;BME280;19125;52.360;9.974;2023-11-19T03:20:32;-15010.44;;;-145.17;77.21
32759;BME280;19125;52.360;9.974;2023-11-19T03:22:57;-15010.44;;;-145.17;77.40
32759;BME280;19125;52.360;9.974;2023-11-19T03:25:26;-15010.44;;;-145.17;77.46
32759;BME280;19125;52.360;9.974;2023-11-19T03:27:52;-15010.44;;;-145.17;77.53
32759;BME280;19125;52.360;9.974;2023-11-19T03:30:21;-15010.44;;;-145.17;77.13
32759;BME280;19125;52.360;9.974;2023-11-19T03:32:46;-15010.44;;;-145.17;77.58
32759;BME280;19125;52.360;9.974;2023-11-19T03:35:12;-15010.44;;;-145.17;77.36
32759;BME280;19125;52.360;9.974;2023-11-19T03:37:37;-15010.44;;;-145.17;77.64
32759;BME280;19125;52.360;9.974;2023-11-19T03:40:03;-15010.44;;;-145.17;77.62
32759;BME280;19125;52.360;9.974;2023-11-19T03:42:29;-15010.44;;;-145.17;77.90
32759;BME280;19125;52.360;9.974;2023-11-19T03:44:56;-15010.44;;;-145.17;77.71
32759;BME280;19125;52.360;9.974;2023-11-19T03:47:21;-15010.44;;;-145.17;77.80
32759;BME280;19125;52.360;9.974;2023-11-19T03:49:50;-15010.44;;;-145.17;77.95
32759;BME280;19125;52.360;9.974;2023-11-19T03:52:17;-15010.44;;;-145.17;77.83
32759;BME280;19125;52.360;9.974;2023-11-19T03:54:49;-15010.44;;;-145.17;77.52
32759;BME280;19125;52.360;9.974;2023-11-19T03:57:15;-15010.44;;;-145.17;77.65
32759;BME280;19125;52.360;9.974;2023-11-19T03:59:44;-15010.44;;;-145.17;77.53
32759;BME280;19125;52.360;9.974;2023-11-19T04:02:09;-15010.44;;;-145.17;77.85
32759;BME280;19125;52.360;9.974;2023-11-19T04:04:35;-15010.44;;;-145.17;77.73
32759;BME280;19125;52.360;9.974;2023-11-19T04:07:01;-15010.44;;;-145.17;77.96
32759;BME280;19125;52.360;9.974;2023-11-19T04:09:28;-15010.44;;;-145.17;77.79
32759;BME280;19125;52.360;9.974;2023-11-19T04:11:54;-15010.44;;;-145.17;78.01
32759;BME280;19125;52.360;9.974;2023-11-19T04:14:22;-15010.44;;;-145.17;77.88
32759;BME280;19125;52.360;9.974;2023-11-19T04:16:47;-15010.44;;;-145.17;77.66
32759;BME280;19125;52.360;9.974;2023-11-19T04:19:13;-15010.44;;;-145.17;77.70
32759;BME280;19125;52.360;9.974;2023-11-19T04:21:41;-15010.44;;;-145.17;77.70
32759;BME280;19125;52.360;9.974;2023-11-19T04:24:09;-15010.44;;;-145.17;78.30
32759;BME280;19125;52.360;9.974;2023-11-19T04:26:44;-15010.44;;;-145.17;77.76
32759;BME280;19125;52.360;9.974;2023-11-19T04:29:17;-15010.44;;;-145.17;78.26
32759;BME280;19125;52.360;9.974;2023-11-19T04:31:43;-15010.44;;;-145.17;77.92
32759;BME280;19125;52.360;9.974;2023-11-19T04:34:12;-15010.44;;;-145.17;77.98
32759;BME280;19125;52.360;9.974;2023-11-19T04:36:37;-15010.44;;;-145.17;77.93
32759;BME280;19125;52.360;9.974;2023-11-19T04:39:04;-15010.44;;;-145.17;77.79
32759;BME280;19125;52.360;9.974;2023-11-19T04:41:35;-15010.44;;;-145.17;78.02
32759;BME280;19125;52.360;9.974;2023-11-19T04:44:00;-15010.44;;;-145.17;78.23
32759;BME280;19125;52.360;9.974;2023-11-19T04:46:26;-15010.44;;;-145.17;77.73
32759;BME280;19125;52.360;9.974;2023-11-19T04:48:51;-15010.44;;;-145.17;78.10
32759;BME280;19125;52.360;9.974;2023-11-19T04:51:16;-15010.44;;;-145.17;77.87
32759;BME280;19125;52.360;9.974;2023-11-19T04:53:42;-15010.44;;;-145.17;78.15
32759;BME280;19125;52.360;9.974;2023-11-19T04:56:08;-15010.44;;;-145.17;78.17
32759;BME280;19125;52.360;9.974;2023-11-19T04:58:37;-15010.44;;;-145.17;78.33
32759;BME280;19125;52.360;9.974;2023-11-19T05:01:03;-15010.44;;;-145.17;78.40
32759;BME280;19125;52.360;9.974;2023-11-19T05:03:30;-15010.44;;;-145.17;77.96
32759;BME280;19125;52.360;9.974;2023-11-19T05:05:58;-15010.44;;;-145.17;78.31
32759;BME280;19125;52.360;9.974;2023-11-19T05:08:24;-15010.44;;;-145.17;78.12
32759;BME280;19125;52.360;9.974;2023-11-19T05:10:50;-15010.44;;;-145.17;78.17
32759;BME280;19125;52.360;9.974;2023-11-19T05:13:18;-15010.44;;;-145.17;78.47
32759;BME280;19125;52.360;9.974;2023-11-19T05:15:44;-15010.44;;;-145.17;78.12
32759;BME280;19125;52.360;9.974;2023-11-19T05:18:09;-15010.44;;;-145.17;78.04
32759;BME280;19125;52.360;9.974;2023-11-19T05:20:40;-15010.44;;;-145.17;78.74
32759;BME280;19125;52.360;9.974;2023-11-19T05:23:13;-15010.44;;;-145.17;78.41
32759;BME280;19125;52.360;9.974;2023-11-19T05:25:38;-15010.44;;;-145.17;78.78
32759;BME280;19125;52.360;9.974;2023-11-19T05:28:06;-15010.44;;;-145.17;79.12
32759;BME280;19125;52.360;9.974;2023-11-19T05:30:32;-15010.44;;;-145.17;78.93
32759;BME280;19125;52.360;9.974;2023-11-19T05:32:57;-15010.44;;;-145.17;78.86
32759;BME280;19125;52.360;9.974;2023-11-19T05:35:23;-15010.44;;;-145.17;79.07
32759;BME280;19125;52.360;9.974;2023-11-19T05:37:48;-15010.44;;;-145.17;78.82
32759;BME280;19125;52.360;9.974;2023-11-19T05:40:15;-15010.44;;;-145.17;79.01
32759;BME280;19125;52.360;9.974;2023-11-19T05:42:41;-15010.44;;;-145.17;79.19
32759;BME280;19125;52.360;9.974;2023-11-19T05:45:07;-15010.44;;;-145.17;79.06
32759;BME280;19125;52.360;9.974;2023-11-19T05:47:33;-15010.44;;;-145.17;79.06
32759;BME280;19125;52.360;9.974;2023-11-19T05:49:58;-15010.44;;;-145.17;79.24
32759;BME280;19125;52.360;9.974;2023-11-19T05:52:24;-15010.44;;;-145.17;79.36
32759;BME280;19125;52.360;9.974;2023-11-19T05:54:49;-15010.44;;;-145.17;79.57
32759;BME280;19125;52.360;9.974;2023-11-19T05:57:17;-15010.44;;;-145.17;79.40
32759;BME280;19125;52.360;9.974;2023-11-19T05:59:47;-15010.44;;;-145.17;79.71
32759;BME280;19125;52.360;9.974;2023-11-19T06:02:16;-15010.44;;;-145.17;79.49
32759;BME280;19125;52.360;9.974;2023-11-19T06:04:41;-15010.44;;;-145.17;79.79
32759;BME280;19125;52.360;9.974;2023-11-19T06:07:09;-15010.44;;;-145.17;79.75
32759;BME280;19125;52.360;9.974;2023-11-19T06:09:34;-15010.44;;;-145.17;79.28
32759;BME280;19125;52.360;9.974;2023-11-19T06:12:00;-15010.44;;;-145.17;79.33
32759;BME280;19125;52.360;9.974;2023-11-19T06:14:27;-15010.44;;;-145.17;79.62
32759;BME280;19125;52.360;9.974;2023-11-19T06:16:52;-15010.44;;;-145.17;79.74
32759;BME280;19125;52.360;9.974;2023-11-19T06:19:18;-15010.44;;;-145.17;79.36
32759;BME280;19125;52.360;9.974;2023-11-19T06:21:43;-15010.44;;;-145.17;79.45
32759;BME280;19125;52.360;9.974;2023-11-19T06:24:08;-15010.44;;;-145.17;79.84
32759;BME280;19125;52.360;9.974;2023-11-19T06:26:34;-15010.44;;;-145.17;79.81
32759;BME280;19125;52.360;9.974;2023-11-19T06:29:00;-15010.44;;;-145.17;79.93
32759;BME280;19125;52.360;9.974;2023-11-19T06:31:25;-15010.44;;;-145.17;80.00
32759;BME280;19125;52.360;9.974;2023-11-19T06:33:50;-15010.44;;;-145.17;80.18
32759;BME280;19125;52.360;9.974;2023-11-19T06:36:16;-15010.44;;;-145.17;80.15
32759;BME280;19125;52.360;9.974;2023-11-19T06:38:42;-15010.44;;;-145.17;80.09
32759;BME280;19125;52.360;9.974;2023-11-19T06:41:08;-15010.44;;;-145.17;80.03
32759;BME280;19125;52.360;9.974;2023-11-19T06:43:34;-15010.44;;;-145.17;80.27
32759;BME280;19125;52.360;9.974;2023-11-19T06:46:03;-15010.44;;;-145.17;80.54
32759;BME280;19125;52.360;9.974;2023-11-19T06:48:32;-15010.44;;;-145.17;80.48
32759;BME280;19125;52.360;9.974;2023-11-19T06:50:57;-15010.44;;;-145.17;80.44
32759;BME280;19125;52.360;9.974;2023-11-19T06:53:23;-15010.44;;;-145.17;80.68
32759;BME280;19125;52.360;9.974;2023-11-19T06:55:48;-15010.44;;;-145.17;80.73
32759;BME280;19125;52.360;9.974;2023-11-19T06:58:13;-15010.44;;;-145.17;81.11
32759;BME280;19125;52.360;9.974;2023-11-19T07:00:39;-15010.44;;;-145.17;81.08
32759;BME280;19125;52.360;9.974;2023-11-19T07:03:04;-15010.44;;;-145.17;81.11
32759;BME280;19125;52.360;9.974;2023-11-19T07:05:36;-15010.44;;;-145.17;81.52
32759;BME280;19125;52.360;9.974;2023-11-19T07:08:03;-15010.44;;;-145.17;81.44
32759;BME280;19125;52.360;9.974;2023-11-19T07:10:29;-15010.44;;;-145.17;81.36
32759;BME280;19125;52.360;9.974;2023-11-19T07:12:56;-15010.44;;;-145.17;81.41
32759;BME280;19125;52.360;9.974;2023-11-19T07:15:21;-15010.44;;;-145.17;81.48
32759;BME280;19125;52.360;9.974;2023-11-19T07:17:46;-15010.44;;;-145.17;81.50
32759;BME280;19125;52.360;9.974;2023-11-19T07:20:13;-15010.44;;;-145.17;81.45
32759;BME280;19125;52.360;9.974;2023-11-19T07:22:43;-15010.44;;;-145.17;81.20
32759;BME280;19125;52.360;9.974;2023-11-19T07:25:08;-15010.44;;;-145.17;81.15
32759;BME280;19125;52.360;9.974;2023-11-19T07:27:33;-15010.44;;;-145.17;80.97
32759;BME280;19125;52.360;9.974;2023-11-19T07:29:59;-15010.44;;;-145.17;80.69
32759;BME280;19125;52.360;9.974;2023-11-19T07:32:25;-15010.44;;;-145.17;80.70
32759;BME280;19125;52.360;9.974;2023-11-19T07:34:51;-15010.44;;;-145.17;80.11
32759;BME280;19125;52.360;9.974;2023-11-19T07:37:19;-15010.44;;;-145.17;79.96
32759;BME280;19125;52.360;9.974;2023-11-19T07:39:44;-15010.44;;;-145.17;79.72
32759;BME280;19125;52.360;9.974;2023-11-19T07:42:17;-15010.44;;;-145.17;79.31
32759;BME280;19125;52.360;9.974;2023-11-19T07:44:43;-15010.44;;;-145.17;78.97
32759;BME280;19125;52.360;9.974;2023-11-19T07:47:09;-15010.44;;;-145.17;78.67
32759;BME280;19125;52.360;9.974;2023-11-19T07:49:35;-15010.44;;;-145.17;78.25
32759;BME280;19125;52.360;9.974;2023-11-19T07:52:00;-15010.44;;;-145.17;78.02
32759;BME280;19125;52.360;9.974;2023-11-19T07:54:29;-15010.44;;;-145.17;77.42
32759;BME280;19125;52.360;9.974;2023-11-19T07:56:54;-15010.44;;;-145.17;76.66
32759;BME280;19125;52.360;9.974;2023-11-19T07:59:20;-15010.44;;;-145.17;76.55
32759;BME280;19125;52.360;9.974;2023-11-19T08:01:46;-15010.44;;;-145.17;75.99
32759;BME280;19125;52.360;9.974;2023-11-19T08:04:11;-15010.44;;;-145.17;75.61
32759;BME280;19125;52.360;9.974;2023-11-19T08:06:37;-15010.44;;;-145.17;74.97
32759;BME280;19125;52.360;9.974;2023-11-19T08:09:08;-15010.44;;;-145.17;74.64
32759;BME280;19125;52.360;9.974;2023-11-19T08:11:40;-15010.44;;;-145.17;73.99
32759;BME280;19125;52.360;9.974;2023-11-19T08:14:06;-15010.44;;;-145.17;73.18
32759;BME280;19125;52.360;9.974;2023-11-19T08:16:31;-15010.44;;;-145.17;72.67
32759;BME280;19125;52.360;9.974;2023-11-19T08:18:57;-15010.44;;;-145.17;72.24
32759;BME280;19125;52.360;9.974;2023-11-19T08:21:23;-15010.44;;;-145.17;71.25
32759;BME280;19125;52.360;9.974;2023-11-19T08:23:49;-15010.44;;;-145.17;70.76
32759;BME280;19125;52.360;9.974;2023-11-19T08:26:15;-15010.44;;;-145.17;70.22
32759;BME280;19125;52.360;9.974;2023-11-19T08:28:40;-14761.44;;;-145.17;69.74
32759;BME280;19125;52.360;9.974;2023-11-19T08:31:06;-12780.53;;;-145.17;68.58
32759;BME280;19125;52.360;9.974;2023-11-19T08:33:34;-10550.78;;;-145.17;68.26
32759;BME280;19125;52.360;9.974;2023-11-19T08:36:00;-7823.78;;;-145.17;67.82
32759;BME280;19125;52.360;9.974;2023-11-19T08:38:26;-4846.66;;;-145.17;67.04
32759;BME280;19125;52.360;9.974;2023-11-19T08:40:53;-1867.22;;;-145.17;66.70
32759;BME280;19125;52.360;9.974;2023-11-19T08:43:18;865.97;;;-145.17;66.24
32759;BME280;19125;52.360;9.974;2023-11-19T08:45:44;3601.06;;;-145.17;66.01
32759;BME280;19125;52.360;9.974;2023-11-19T08:48:10;5840.34;;;-145.17;65.76
32759;BME280;19125;52.360;9.974;2023-11-19T08:50:35;7582.91;;;-145.17;65.50
32759;BME280;19125;52.360;9.974;2023-11-19T08:53:00;9326.22;;;-145.17;65.34
32759;BME280;19125;52.360;9.974;2023-11-19T08:55:26;10571.94;;;-145.17;65.31
32759;BME280;19125;52.360;9.974;2023-11-19T08:57:51;11818.06;;;-145.17;65.24
32759;BME280;19125;52.360;9.974;2023-11-19T09:00:17;12815.25;;;-145.17;65.25
32759;BME280;19125;52.360;9.974;2023-11-19T09:02:43;13812.69;;;-145.17;65.51
32759;BME280;19125;52.360;9.974;2023-11-19T09:05:09;15059.84;;;-145.17;64.96
32759;BME280;19125;52.360;9.974;2023-11-19T09:07:34;17056.16;;;-145.17;64.62
32759;BME280;19125;52.360;9.974;2023-11-19T09:10:00;19802.72;;;-145.17;64.39
32759;BME280;19125;52.360;9.974;2023-11-19T09:12:25;23051.19;;;-145.17;64.23
32759;BME280;19125;52.360;9.974;2023-11-19T09:14:53;25551.84;;;-145.17;63.78
32759;BME280;19125;52.360;9.974;2023-11-19T09:17:23;27803.78;;;-145.17;63.49
32759;BME280;19125;52.360;9.974;2023-11-19T09:19:49;30307.50;;;-145.17;63.26
32759;BME280;19125;52.360;9.974;2023-11-19T09:22:16;34316.75;;;-145.17;62.68
32759;BME280;19125;52.360;9.974;2023-11-19T09:24:42;38079.16;;;-145.17;62.63
32759;BME280;19125;52.360;9.974;2023-11-19T09:27:09;41342.81;;;-145.17;62.02
32759;BME280;19125;52.360;9.974;2023-11-19T09:29:37;45614.78;;;-145.17;61.72
32759;BME280;19125;52.360;9.974;2023-11-19T09:32:03;47878.28;;;-145.17;61.83
32759;BME280;19125;52.360;9.974;2023-11-19T09:34:29;49136.31;;;-145.17;61.68
32759;BME280;19125;52.360;9.974;2023-11-19T09:36:55;49891.34;;;-145.17;61.68
32759;BME280;19125;52.360;9.974;2023-11-19T09:39:21;53416.72;;;-145.17;61.50
32759;BME280;19125;52.360;9.974;2023-11-19T09:41:46;57701.75;;;-145.17;61.08
32759;BME280;19125;52.360;9.974;2023-11-19T09:44:12;61738.97;;;-145.17;60.56
32759;BME280;19125;52.360;9.974;2023-11-19T09:46:40;66726.06;;;-145.17;60.28
32759;BME280;19125;52.360;9.974;2023-11-19T09:49:08;69801.97;;;-145.17;60.33
32759;BME280;19125;52.360;9.974;2023-11-19T09:51:38;72470.84;;;-145.17;59.99
32759;BME280;19125;52.360;9.974;2023-11-19T09:54:07;73740.69;;;-145.17;59.90
32759;BME280;19125;52.360;9.974;2023-11-19T09:56:40;74844.69;;;-145.17;60.03
32759;BME280;19125;52.360;9.974;2023-11-19T09:59:09;75830.25;;;-145.17;59.83
32759;BME280;19125;52.360;9.974;2023-11-19T10:01:37;76366.66;;;-145.17;60.15
32759;BME280;19125;52.360;9.974;2023-11-19T10:04:03;77893.16;;;-145.17;59.76
32759;BME280;19125;52.360;9.974;2023-11-19T10:06:28;78790.34;;;-145.17;59.19
32759;BME280;19125;52.360;9.974;2023-11-19T10:08:55;81308.63;;;-145.17;59.02
32759;BME280;19125;52.360;9.974;2023-11-19T10:11:20;82375.09;;;-145.17;58.66
32759;BME280;19125;52.360;9.974;2023-11-19T10:13:46;83354.56;;;-145.17;58.34
32759;BME280;19125;52.360;9.974;2023-11-19T10:16:13;84564.34;;;-145.17;58.12
32759;BME280;19125;52.360;9.974;2023-11-19T10:18:51;85109.88;;;-145.17;57.81
32759;BME280;19125;52.360;9.974;2023-11-19T10:21:19;85673.34;;;-145.17;57.70
32759;BME280;19125;52.360;9.974;2023-11-19T10:23:55;86072.16;;;-145.17;57.08
32759;BME280;19125;52.360;9.974;2023-11-19T10:26:26;86272.59;;;-145.17;56.88
32759;BME280;19125;52.360;9.974;2023-11-19T10:28:52;86401.56;;;-145.17;56.85
32759;BME280;19125;52.360;9.974;2023-11-19T10:31:19;86552.41;;;-145.17;56.72
32759;BME280;19125;52.360;9.974;2023-11-19T10:33:50;86667.50;;;-145.17;56.37
32759;BME280;19125;52.360;9.974;2023-11-19T10:36:21;86727.03;;;-145.17;56.11
32759;BME280;19125;52.360;9.974;2023-11-19T10:38:56;86742.91;;;-145.17;56.03
32759;BME280;19125;52.360;9.974;2023-11-19T10:43:56;86766.75;;;-145.17;55.56
32759;BME280;19125;52.360;9.974;2023-11-19T10:46:21;86798.50;;;-145.17;55.56
32759;BME280;19125;52.360;9.974;2023-11-19T10:48:49;86808.41;;;-145.17;55.39
32759;BME280;19125;52.360;9.974;2023-11-19T10:51:19;86826.28;;;-145.17;54.70
32759;BME280;19125;52.360;9.974;2023-11-19T10:53:49;86867.97;;;-145.17;54.77
32759;BME280;19125;52.360;9.974;2023-11-19T10:56:16;86927.50;;;-145.17;54.70
32759;BME280;19125;52.360;9.974;2023-11-19T10:58:49;86897.72;;;-145.17;54.52
32759;BME280;19125;52.360;9.974;2023-11-19T11:01:21;86893.75;;;-145.17;54.69
32759;BME280;19125;52.360;9.974;2023-11-19T11:03:50;86840.16;;;-145.17;54.51
32759;BME280;19125;52.360;9.974;2023-11-19T11:06:20;86899.72;;;-145.17;54.19
32759;BME280;19125;52.360;9.974;2023-11-19T11:08:48;86877.88;;;-145.17;53.58
32759;BME280;19125;52.360;9.974;2023-11-19T11:11:15;86903.69;;;-145.17;53.66
32759;BME280;19125;52.360;9.974;2023-11-19T11:13:49;86858.03;;;-145.17;53.32
32759;BME280;19125;52.360;9.974;2023-11-19T11:16:18;86877.88;;;-145.17;53.18
32759;BME280;19125;52.360;9.974;2023-11-19T11:18:47;86891.78;;;-145.17;53.18
32759;BME280;19125;52.360;9.974;2023-11-19T11:21:21;86834.22;;;-145.17;53.30
32759;BME280;19125;52.360;9.974;2023-11-19T11:35:27;86879.88;;;-145.17;52.52
32759;BME280;19125;52.360;9.974;2023-11-19T11:37:41;86842.16;;;-145.17;52.63
32759;BME280;19125;52.360;9.974;2023-11-19T11:40:20;86838.19;;;-145.17;52.66
32759;BME280;19125;52.360;9.974;2023-11-19T11:42:48;86836.19;;;-145.17;52.22
32759;BME280;19125;52.360;9.974;2023-11-19T11:45:14;86895.75;;;-145.17;52.24
32759;BME280;19125;52.360;9.974;2023-11-19T11:50:17;86895.75;;;-145.17;52.48
32759;BME280;19125;52.360;9.974;2023-11-19T11:55:52;86858.03;;;-145.17;52.21
32759;BME280;19125;52.360;9.974;2023-11-19T11:58:21;86871.94;;;-145.17;52.44
32759;BME280;19125;52.360;9.974;2023-11-19T12:00:47;86862.00;;;-145.17;52.48
32759;BME280;19125;52.360;9.974;2023-11-19T12:03:14;86832.22;;;-145.17;52.24
32759;BME280;19125;52.360;9.974;2023-11-19T12:05:44;86836.19;;;-145.17;52.10
32759;BME280;19125;52.360;9.974;2023-11-19T12:08:11;86826.28;;;-145.17;51.75
32759;BME280;19125;52.360;9.974;2023-11-19T12:10:46;86877.88;;;-145.17;51.83
32759;BME280;19125;52.360;9.974;2023-11-19T12:13:13;86903.69;;;-145.17;51.80
32759;BME280;19125;52.360;9.974;2023-11-19T12:18:30;86869.94;;;-145.17;52.04
32759;BME280;19125;52.360;9.974;2023-11-19T12:20:59;86865.97;;;-145.17;52.54
32759;BME280;19125;52.360;9.974;2023-11-19T12:23:31;86836.19;;;-145.17;52.34
32759;BME280;19125;52.360;9.974;2023-11-19T12:26:00;86826.28;;;-145.17;51.62
32759;BME280;19125;52.360;9.974;2023-11-19T12:28:25;86818.34;;;-145.17;51.50
32759;BME280;19125;52.360;9.974;2023-11-19T12:30:53;86798.50;;;-145.17;51.27
32759;BME280;19125;52.360;9.974;2023-11-19T12:33:19;86828.25;;;-145.17;51.31
32759;BME280;19125;52.360;9.974;2023-11-19T12:35:46;86828.25;;;-145.17;51.15
32759;BME280;19125;52.360;9.974;2023-11-19T12:38:20;86858.03;;;-145.17;51.07
32759;BME280;19125;52.360;9.974;2023-11-19T12:40:46;86820.31;;;-145.17;51.14
32759;BME280;19125;52.360;9.974;2023-11-19T12:43:21;86850.09;;;-145.17;51.32
32759;BME280;19125;52.360;9.974;2023-11-19T12:45:47;86748.88;;;-145.17;51.05
32759;BME280;19125;52.360;9.974;2023-11-19T12:48:12;86798.50;;;-145.17;50.82
32759;BME280;19125;52.360;9.974;2023-11-19T12:50:55;86836.19;;;-145.17;50.83
32759;BME280;19125;52.360;9.974;2023-11-19T12:53:21;86780.63;;;-145.17;51.21
32759;BME280;19125;52.360;9.974;2023-11-19T12:55:47;86869.94;;;-145.17;50.88